Treasure Island, Florida
Current Conditions -  °F | °C
As of 8:53 PM on Sunday 21 Dec 2014 (Local Time) from KSPG Reporting Station
Overcast Overcast  
Wind Chill: 67°   Ceiling: 5500
Heat Index: 67°   Visibility: 8mi
Dew Point: 64°   Wind: 5mph
Humidity: 90%   Direction: 130°SE
Pressure: 30.01"   Gusts: NA
Location:  27.7689°N, 82.7686°W
Report Text: KSPG 220153Z AUTO 13004KT 8SM FEW023 FEW039 OVC055 19/18 A3001 RMK AO2 LTG DSNT NW RAE11B31E52 SLP160 P0004 T01940178
Loading
Personal Weather Stations






























Interactive Weather Map New forecast layout! Learn more

10-Day Weather Forecast

Advertisements
Track Severe Weather on mobile